Fort Hope, Canada
Current Conditions -  °F | °C
As of 7:00 PM on Saturday 25 Oct 2014 (Local Time) from CYLH Reporting Station
Overcast Overcast  
Wind Chill: 29°   Ceiling: 1500
Heat Index: 37°   Visibility: 9mi
Dew Point: 37°   Wind: 14mph
Humidity: 100%   Direction: 300°WNW
Pressure: 29.63"   Gusts: 25mph
Location:  51.55°N, 87.98°W
Report Text: CYLH 252300Z AUTO 30012G22KT 260V320 9SM OVC015 03/03 A2963 RMK SLP045
Loading
Personal Weather Stations






























Interactive Weather Map
Tropical Storm Tracking
New forecast layout! Learn more

10-Day Weather Forecast

Advertisements
Track Severe Weather on mobile